• Join FlightAware (Why Join?)
  • Login
  • US Flag 
07:49PM EDT


 

Airport Tracker/Info


-or-


 

Live Flight TrackerFlight Track Log ✈ UAL4679 ✈ 05-May-2013 ✈ KDCA - KEWR

Flight Track Log - Related Links

Times and Time Zones

All times are in EDT time to prevent confusion due to time zone crossing. See the UAL4679 flight status page for this flight to view local times or setup timezone preferences in your user account.

Time Position Orientation Groundspeed Altitude Reporting Facility
EDT Latitude Longitude Course Direction KTS MPH feet Rate Location/Type
08:32AM 38.8833 -77.0667 62° Northeast 190 219 2,100  Level Potomac TRACON
08:34AM 38.9719 -77.1694 318° Northwest 236 272 5,900 2,340 Climbing Washington Center
08:35AM 38.9621 -76.7259 57° Northeast  Level FlightAware Approximate
08:35AM 39.0244 -77.1358 26° Northeast 180 207 8,400  Level Washington Center
08:36AM 38.9851 -76.6447 67° East  Level FlightAware Approximate
08:36AM 39.0381 -77.0428 79° East 170 196 10,600  Level Washington Center
08:37AM 39.0120 -76.5639 67° East  Level FlightAware Approximate
08:37AM 39.0539 -76.9389 79° East 230 265 11,700  Level Washington Center
08:38AM 39.0434 -76.4859 62° Northeast  Level FlightAware Approximate
08:38AM 39.0675 -76.8214 81° East 285 328 13,300  Level Washington Center
08:39AM 39.0856 -76.7014 79° East 322 371 15,300 1,740 Climbing Washington Center
08:40AM 39.1011 -76.5839 80° East 334 384 16,900 840 Climbing Washington Center
08:41AM 39.1208 -76.4583 79° East 339 390 17,000  Climbing Washington Center
08:42AM 39.1736 -76.3358 61° Northeast 366 421 17,000  Level Washington Center
08:43AM 39.2286 -76.2186 59° Northeast 366 421 17,000  Level Washington Center
08:44AM 39.2792 -76.1144 58° Northeast 378 435 17,000  Level Washington Center
08:45AM 39.3442 -76.0022 53° Northeast 383 441 17,000  Level Washington Center
08:46AM 39.4256 -75.9086 42° Northeast 383 441 17,000  Level Washington Center
08:47AM 39.5050 -75.8147 42° Northeast 383 441 17,000  Level Washington Center
08:48AM 39.5844 -75.7208 42° Northeast 383 441 17,000  Level Washington Center
08:49AM 39.6636 -75.6292 42° Northeast 378 435 17,000  Level Washington Center
08:50AM 39.7406 -75.5322 44° Northeast 378 435 17,000  Level Washington Center
08:51AM 39.8217 -75.4375 42° Northeast 378 435 17,000 -300 Level Washington Center
08:52AM 39.8986 -75.3453 43° Northeast 372 428 16,500 -1,260 Descending Washington Center
08:53AM 39.9756 -75.2531 43° Northeast 372 428 14,600 -1,800 Descending Washington Center
08:55AM 40.1333 -75.0500 45° Northeast 352 405 11,000 -1,440 Descending New York TRACON
08:56AM 40.2000 -74.9833 37° Northeast 296 341 10,200 -1,260 Descending New York TRACON
08:57AM 40.2500 -74.9167 45° Northeast 267 307 8,700 -1,200 Descending New York TRACON
08:58AM 40.2833 -74.8333 62° Northeast 258 297 8,000 -780 Descending New York TRACON
08:59AM 40.3167 -74.7500 62° Northeast 257 296 7,200 -900 Descending New York TRACON
09:00AM 40.3500 -74.6833 57° Northeast 252 290 6,300 -1,020 Descending New York TRACON
09:01AM 40.3833 -74.6000 62° Northeast 245 282 5,300 -1,020 Descending New York TRACON
09:02AM 40.4167 -74.5167 62° Northeast 241 277 4,300 -960 Descending New York TRACON
09:03AM 40.4500 -74.4667 49° Northeast 235 270 3,500 -720 Descending New York TRACON
09:04AM 40.4667 -74.4000 72° East 201 231 3,000 -360 Descending New York TRACON
09:05AM 40.5000 -74.3333 57° Northeast 203 234 2,900 -120 Descending New York TRACON
09:06AM 40.5167 -74.2667 72° East 205 236 2,800 -120 Descending New York TRACON